createdAt,value
2023-03-22T00:02:14.699Z,100985.34
2023-03-22T00:05:10.799Z,100979.38
2023-03-22T00:08:00.969Z,100980.44
2023-03-22T00:10:29.069Z,100978.94
2023-03-22T00:12:55.774Z,100969.50
2023-03-22T00:15:22.597Z,100969.59
2023-03-22T00:17:52.331Z,100968.09
2023-03-22T00:20:20.852Z,100965.59
2023-03-22T00:22:47.363Z,100957.00
2023-03-22T00:25:13.826Z,100958.81
2023-03-22T00:27:40.397Z,100953.78
2023-03-22T00:30:08.051Z,100949.47
2023-03-22T00:32:36.016Z,100945.97
2023-03-22T00:35:03.937Z,100942.44
2023-03-22T00:37:34.291Z,100949.41
2023-03-22T00:40:01.281Z,100946.72
2023-03-22T00:42:28.457Z,100947.66
2023-03-22T00:44:54.877Z,100944.25
2023-03-22T00:47:21.377Z,100944.22
2023-03-22T00:49:49.351Z,100939.97
2023-03-22T00:52:15.810Z,100932.31
2023-03-22T00:54:42.289Z,100930.69
2023-03-22T00:57:08.728Z,100930.88
2023-03-22T00:59:38.587Z,100924.13
2023-03-22T01:02:05.811Z,100920.84
2023-03-22T01:04:35.475Z,100921.78
2023-03-22T01:07:05.618Z,100915.72
2023-03-22T01:09:33.762Z,100910.41
2023-03-22T01:12:01.808Z,100905.13
2023-03-22T01:14:28.646Z,100896.28
2023-03-22T01:16:57.279Z,100894.63
2023-03-22T01:19:24.605Z,100884.28
2023-03-22T01:21:51.029Z,100879.06
2023-03-22T01:24:17.408Z,100879.91
2023-03-22T01:26:43.781Z,100876.38
2023-03-22T01:29:10.399Z,100872.91
2023-03-22T01:31:36.990Z,100870.16
2023-03-22T01:34:03.900Z,100864.84
2023-03-22T01:36:30.563Z,100866.53
2023-03-22T01:38:57.040Z,100857.13
2023-03-22T01:41:23.562Z,100856.19
2023-03-22T01:44:09.282Z,100847.53
2023-03-22T01:46:36.557Z,100835.50
2023-03-22T01:49:05.035Z,100842.38
2023-03-22T01:51:32.043Z,100834.56
2023-03-22T01:54:04.035Z,100829.28
2023-03-22T01:56:34.514Z,100823.97
2023-03-22T01:59:01.616Z,100816.25
2023-03-22T02:01:30.226Z,100813.63
2023-03-22T02:04:08.192Z,100805.03
2023-03-22T02:06:38.293Z,100802.53
2023-03-22T02:09:11.089Z,100799.84
2023-03-22T02:11:42.810Z,100794.63
2023-03-22T02:14:12.259Z,100787.63
2023-03-22T02:16:50.826Z,100782.50
2023-03-22T02:19:29.255Z,100785.22
2023-03-22T02:22:01.490Z,100778.22
2023-03-22T02:24:45.750Z,100777.47
2023-03-22T02:27:40.394Z,100768.88
2023-03-22T02:30:31.538Z,100769.66
2023-03-22T02:33:16.402Z,100767.97
2023-03-22T02:36:16.739Z,100757.53
2023-03-22T02:39:01.309Z,100752.34
2023-03-22T02:41:40.295Z,100749.72
2023-03-22T02:44:15.839Z,100747.84
2023-03-22T02:47:05.052Z,100734.75
2023-03-22T02:49:37.720Z,100741.63
2023-03-22T02:52:07.205Z,100737.25
2023-03-22T02:54:44.582Z,100728.53
2023-03-22T02:57:28.390Z,100735.44
2023-03-22T02:59:56.903Z,100729.22
2023-03-22T03:02:26.685Z,100721.22
2023-03-22T03:04:54.122Z,100726.34
2023-03-22T03:07:25.554Z,100719.28
2023-03-22T03:09:52.656Z,100715.56
2023-03-22T03:12:23.220Z,100711.88
2023-03-22T03:14:49.659Z,100718.75
2023-03-22T03:17:34.089Z,100715.97
2023-03-22T03:20:31.201Z,100716.91
2023-03-22T03:23:35.222Z,100718.59
2023-03-22T03:26:23.029Z,100726.50
2023-03-22T03:28:52.502Z,100717.75
2023-03-22T03:31:31.505Z,100717.75
2023-03-22T03:34:17.058Z,100721.97
2023-03-22T03:36:50.993Z,100712.53
2023-03-22T03:39:19.994Z,100718.59
2023-03-22T03:41:50.228Z,100719.41
2023-03-22T03:44:17.814Z,100722.91
2023-03-22T03:46:45.831Z,100720.13
2023-03-22T03:49:14.107Z,100717.44
2023-03-22T03:51:49.825Z,100711.38
2023-03-22T03:54:16.366Z,100703.13
2023-03-22T03:56:42.834Z,100708.28
2023-03-22T03:59:09.301Z,100708.06
2023-03-22T04:01:36.177Z,100701.78
2023-03-22T04:04:02.639Z,100708.66
2023-03-22T04:06:29.065Z,100711.25
2023-03-22T04:08:56.543Z,100707.00
2023-03-22T04:11:23.039Z,100709.59
2023-03-22T04:13:49.456Z,100712.28
2023-03-22T04:16:16.068Z,100708.00
2023-03-22T04:18:42.613Z,100711.38
2023-03-22T04:21:09.097Z,100714.72
2023-03-22T04:23:35.608Z,100708.56
2023-03-22T04:26:02.269Z,100702.34
2023-03-22T04:28:28.840Z,100695.34
2023-03-22T04:30:57.800Z,100689.22
2023-03-22T04:33:24.281Z,100691.72
2023-03-22T04:35:56.657Z,100694.16
2023-03-22T04:38:25.208Z,100686.31
2023-03-22T04:40:51.756Z,100681.94
2023-03-22T04:43:18.945Z,100668.91
2023-03-22T04:45:46.177Z,100679.34
2023-03-22T04:48:12.678Z,100680.34
2023-03-22T04:50:40.371Z,100679.44
2023-03-22T04:53:08.102Z,100684.56
2023-03-22T04:55:34.504Z,100680.34
2023-03-22T04:58:01.014Z,100670.78
2023-03-22T05:00:30.045Z,100678.66
2023-03-22T05:02:57.296Z,100673.38
2023-03-22T05:05:24.011Z,100665.56
2023-03-22T05:07:50.394Z,100664.69
2023-03-22T05:10:16.871Z,100672.63
2023-03-22T05:12:43.241Z,100659.69
2023-03-22T05:15:09.870Z,100662.28
2023-03-22T05:17:36.260Z,100659.69
2023-03-22T05:20:09.259Z,100662.47
2023-03-22T05:22:40.455Z,100662.47
2023-03-22T05:25:10.248Z,100654.72
2023-03-22T05:27:38.996Z,100651.44
2023-03-22T05:30:06.543Z,100655.00
2023-03-22T05:32:33.013Z,100660.38
2023-03-22T05:35:04.697Z,100655.16
2023-03-22T05:37:31.619Z,100643.06
2023-03-22T05:39:58.167Z,100636.13
2023-03-22T05:42:24.591Z,100648.28
2023-03-22T05:44:51.312Z,100651.97
2023-03-22T05:47:17.729Z,100641.53
2023-03-22T05:49:44.192Z,100645.06
2023-03-22T05:52:10.969Z,100648.44
2023-03-22T05:54:37.336Z,100635.31
2023-03-22T05:57:03.809Z,100635.41
2023-03-22T05:59:30.291Z,100629.44
2023-03-22T06:01:56.694Z,100629.44
2023-03-22T06:04:23.281Z,100631.09
2023-03-22T06:06:50.393Z,100636.31
2023-03-22T06:09:18.076Z,100640.44
2023-03-22T06:11:44.788Z,100638.41
2023-03-22T06:14:11.512Z,100627.78
2023-03-22T06:16:38.056Z,100637.09
2023-03-22T06:19:04.612Z,100633.47
2023-03-22T06:21:31.135Z,100642.06
2023-03-22T06:23:57.689Z,100632.47
2023-03-22T06:26:24.187Z,100642.91
2023-03-22T06:28:50.974Z,100636.56
2023-03-22T06:31:17.522Z,100637.13
2023-03-22T06:33:45.415Z,100634.81
2023-03-22T06:36:11.894Z,100640.91
2023-03-22T06:38:38.388Z,100634.50
2023-03-22T06:41:05.279Z,100642.97
2023-03-22T06:43:31.845Z,100634.56
2023-03-22T06:45:58.396Z,100636.16
2023-03-22T06:48:25.030Z,100634.63
2023-03-22T06:50:51.608Z,100638.19
2023-03-22T06:53:18.209Z,100639.03
2023-03-22T06:55:44.622Z,100647.81
2023-03-22T06:58:11.259Z,100639.03
2023-03-22T07:00:39.018Z,100637.63
2023-03-22T07:03:05.792Z,100638.09
2023-03-22T07:05:32.379Z,100634.72
2023-03-22T07:07:58.812Z,100639.94
2023-03-22T07:10:25.488Z,100639.94
2023-03-22T07:12:51.973Z,100629.50
2023-03-22T07:15:20.021Z,100633.25
2023-03-22T07:17:46.386Z,100640.31
2023-03-22T07:20:12.971Z,100640.31
2023-03-22T07:22:39.521Z,100643.03
2023-03-22T07:25:06.364Z,100646.59
2023-03-22T07:27:32.805Z,100640.50
2023-03-22T07:29:59.278Z,100636.78
2023-03-22T07:32:25.977Z,100637.16
2023-03-22T07:34:52.486Z,100644.41
2023-03-22T07:37:18.932Z,100639.53
2023-03-22T07:39:45.460Z,100625.25
2023-03-22T07:42:12.094Z,100632.78
2023-03-22T07:44:38.548Z,100630.09
2023-03-22T07:47:05.359Z,100642.66
2023-03-22T07:49:32.409Z,100624.25
2023-03-22T07:51:58.939Z,100631.38
2023-03-22T07:54:33.326Z,100634.06
2023-03-22T07:57:01.559Z,100632.41
2023-03-22T07:59:28.389Z,100639.28
2023-03-22T08:01:57.366Z,100625.63
2023-03-22T08:04:23.852Z,100624.66
2023-03-22T08:06:51.285Z,100634.63
2023-03-22T08:09:18.331Z,100624.41
2023-03-22T08:11:45.821Z,100633.72
2023-03-22T08:14:12.257Z,100612.00
2023-03-22T08:16:38.866Z,100624.13
2023-03-22T08:19:06.016Z,100627.56
2023-03-22T08:21:32.606Z,100624.13
2023-03-22T08:23:59.135Z,100627.06
2023-03-22T08:26:26.176Z,100621.91
2023-03-22T08:28:52.766Z,100623.81
2023-03-22T08:31:20.121Z,100624.84
2023-03-22T08:33:47.074Z,100622.31
2023-03-22T08:36:16.648Z,100622.75
2023-03-22T08:38:44.817Z,100619.63
2023-03-22T08:41:12.756Z,100620.06
2023-03-22T08:43:39.347Z,100617.34
2023-03-22T08:46:06.219Z,100612.53
2023-03-22T08:48:32.808Z,100610.53
2023-03-22T08:51:01.076Z,100614.81
2023-03-22T08:53:28.009Z,100607.72
2023-03-22T08:55:57.946Z,100607.81
2023-03-22T08:58:24.865Z,100605.81
2023-03-22T09:00:51.596Z,100595.47
2023-03-22T09:03:18.128Z,100610.00
2023-03-22T09:05:44.586Z,100612.63
2023-03-22T09:08:18.661Z,100614.91
2023-03-22T09:10:52.602Z,100618.38
2023-03-22T09:13:20.016Z,100616.38
2023-03-22T09:15:47.125Z,100611.38
2023-03-22T09:18:16.521Z,100609.59
2023-03-22T09:20:44.612Z,100615.53
2023-03-22T09:23:11.846Z,100632.00
2023-03-22T09:25:38.746Z,100618.78
2023-03-22T09:28:11.094Z,100625.72
2023-03-22T09:30:38.371Z,100615.88
2023-03-22T09:33:12.030Z,100625.53
2023-03-22T09:35:43.182Z,100619.88
2023-03-22T09:38:10.534Z,100623.91
2023-03-22T09:40:43.522Z,100631.22
2023-03-22T09:43:13.606Z,100624.44
2023-03-22T09:45:48.281Z,100614.25
2023-03-22T09:48:21.655Z,100626.47
2023-03-22T09:50:51.490Z,100619.31
2023-03-22T09:53:18.459Z,100634.38
2023-03-22T09:56:07.124Z,100617.19
2023-03-22T09:58:39.598Z,100633.09
2023-03-22T10:01:35.673Z,100623.78
2023-03-22T10:04:26.142Z,100619.69
2023-03-22T10:07:16.340Z,100606.69
2023-03-22T10:10:12.603Z,100623.41
2023-03-22T10:13:07.751Z,100617.25
2023-03-22T10:15:41.983Z,100610.88
2023-03-22T10:18:16.362Z,100609.00
2023-03-22T10:20:57.287Z,100621.34
2023-03-22T10:23:35.738Z,100613.41
2023-03-22T10:26:04.465Z,100609.00
2023-03-22T10:28:39.154Z,100610.69
2023-03-22T10:31:06.978Z,100608.16
2023-03-22T10:33:50.532Z,100622.81
2023-03-22T10:36:20.862Z,100615.72
2023-03-22T10:38:54.544Z,100617.41
2023-03-22T10:41:25.582Z,100613.63
2023-03-22T10:44:00.512Z,100619.91
2023-03-22T10:46:34.116Z,100621.16
2023-03-22T10:49:02.412Z,100628.25
2023-03-22T10:51:47.790Z,100618.75
2023-03-22T10:54:17.313Z,100631.88
2023-03-22T10:56:45.134Z,100609.88
2023-03-22T10:59:51.388Z,100607.34
2023-03-22T11:02:29.664Z,100610.50
2023-03-22T11:05:03.838Z,100595.25
2023-03-22T11:07:36.887Z,100610.63
2023-03-22T11:10:09.920Z,100610.34
2023-03-22T11:12:45.636Z,100603.13
2023-03-22T11:15:30.777Z,100603.38
2023-03-22T11:18:07.005Z,100598.47
2023-03-22T11:20:35.719Z,100606.22
2023-03-22T11:23:07.223Z,100605.69
2023-03-22T11:25:39.062Z,100599.09
2023-03-22T11:28:23.843Z,100591.16
2023-03-22T11:31:07.734Z,100599.44
2023-03-22T11:33:37.536Z,100591.66
2023-03-22T11:36:18.140Z,100594.28
2023-03-22T11:38:47.428Z,100587.38
2023-03-22T11:41:23.884Z,100600.97
2023-03-22T11:44:03.759Z,100605.28
2023-03-22T11:46:32.213Z,100588.53
2023-03-22T11:49:05.198Z,100597.31
2023-03-22T11:51:37.176Z,100603.50
2023-03-22T11:54:11.177Z,100602.69
2023-03-22T11:56:43.548Z,100615.84
2023-03-22T11:59:40.582Z,100609.97
2023-03-22T12:02:23.933Z,100625.88
2023-03-22T12:05:00.770Z,100618.97
2023-03-22T12:07:32.572Z,100625.88
2023-03-22T12:10:21.868Z,100623.38
2023-03-22T12:13:00.870Z,100618.97
2023-03-22T12:15:41.123Z,100612.78
2023-03-22T12:18:23.206Z,100607.47
2023-03-22T12:20:56.897Z,100606.41
2023-03-22T12:23:30.447Z,100611.44
2023-03-22T12:26:09.018Z,100608.63
2023-03-22T12:28:56.751Z,100600.78
2023-03-22T12:31:31.946Z,100608.63
2023-03-22T12:34:03.987Z,100606.84
2023-03-22T12:36:41.566Z,100606.84
2023-03-22T12:39:30.338Z,100601.53
2023-03-22T12:42:03.171Z,100600.56
2023-03-22T12:44:38.282Z,100600.56
2023-03-22T12:47:19.079Z,100605.59
2023-03-22T12:50:06.265Z,100597.88
2023-03-22T12:52:44.777Z,100602.97
2023-03-22T12:55:23.454Z,100595.13
2023-03-22T12:57:54.941Z,100592.31
2023-03-22T13:00:48.568Z,100596.31
2023-03-22T13:03:21.890Z,100586.56
2023-03-22T13:05:50.801Z,100591.91
2023-03-22T13:08:22.388Z,100591.59
2023-03-22T13:11:01.726Z,100594.13
2023-03-22T13:13:28.218Z,100595.97
2023-03-22T13:16:09.021Z,100593.47
2023-03-22T13:18:35.548Z,100601.53
2023-03-22T13:21:12.557Z,100599.13
2023-03-22T13:24:10.127Z,100606.97
2023-03-22T13:26:48.218Z,100601.84
2023-03-22T13:29:22.052Z,100611.16
2023-03-22T13:31:51.507Z,100609.47
2023-03-22T13:34:31.522Z,100605.72
2023-03-22T13:36:59.431Z,100599.56
2023-03-22T13:39:34.735Z,100602.88
2023-03-22T13:42:38.036Z,100604.47
2023-03-22T13:45:08.996Z,100604.34
2023-03-22T13:47:45.448Z,100610.53
2023-03-22T13:50:23.570Z,100597.56
2023-03-22T13:52:59.931Z,100595.88
2023-03-22T13:56:03.912Z,100589.28
2023-03-22T13:58:36.571Z,100584.75
2023-03-22T14:01:08.141Z,100579.53
2023-03-22T14:03:42.922Z,100584.75
2023-03-22T14:06:29.023Z,100589.78
2023-03-22T14:09:06.140Z,100591.69
2023-03-22T14:12:00.166Z,100587.19
2023-03-22T14:14:32.834Z,100578.06
2023-03-22T14:17:21.119Z,100584.16
2023-03-22T14:19:49.688Z,100572.72
